CJK4 weather

Esterhazy Airport
Esterhazy, Saskatchewan, Canada

Public forecast

Using degrees Celsius for public forecast. Weather courtesy of forecast.io.

METAR (pilot weather report)

Closest report is Yorkton Municipal Airport, 39.8 nm (73.7 km) NNW. Retrieved 2019/04/24 17:00 UTC (25 minutes ago):

CYQV 241700Z AUTO 29016G23KT 9SM CLR 16/M00 A2975 RMK SLP083 DENSITY ALT 2200FT

TAF (pilot weather forecast)

Closest forecast is Yorkton Municipal Airport, 39.8 nm (73.7 km) NNW. Retrieved 2019/04/24 12:39 UTC (5 hours ago):

TAF CYQV 241138Z 2412/2424 28010KT P6SM SKC FM241500 31010KT P6SM SCT060 TEMPO 2415/2424 BKN060 BECMG 2418/2420 30018KT RMK FCST BASED ON AUTO OBS. NXT FCST BY 241800Z